sensor_id;sensor_type;location;lat;lon;timestamp;P1;durP1;ratioP1;P2;durP2;ratioP2
85056;SDS011;75393;49.516;8.662;2024-03-02T00:02:11;1.77;;;1.10;;
85056;SDS011;75393;49.516;8.662;2024-03-02T00:04:36;2.38;;;1.02;;
85056;SDS011;75393;49.516;8.662;2024-03-02T00:07:02;3.28;;;1.15;;
85056;SDS011;75393;49.516;8.662;2024-03-02T00:09:28;1.67;;;1.10;;
85056;SDS011;75393;49.516;8.662;2024-03-02T00:11:54;1.65;;;0.70;;
85056;SDS011;75393;49.516;8.662;2024-03-02T00:14:19;1.60;;;0.82;;
85056;SDS011;75393;49.516;8.662;2024-03-02T00:16:45;4.00;;;1.00;;
85056;SDS011;75393;49.516;8.662;2024-03-02T00:19:10;2.90;;;0.95;;
85056;SDS011;75393;49.516;8.662;2024-03-02T00:21:36;3.22;;;0.80;;
85056;SDS011;75393;49.516;8.662;2024-03-02T00:24:03;2.53;;;1.05;;
85056;SDS011;75393;49.516;8.662;2024-03-02T00:26:34;1.95;;;1.15;;
85056;SDS011;75393;49.516;8.662;2024-03-02T00:29:06;2.33;;;1.00;;
85056;SDS011;75393;49.516;8.662;2024-03-02T00:31:32;2.20;;;1.33;;
85056;SDS011;75393;49.516;8.662;2024-03-02T00:33:57;1.67;;;0.90;;
85056;SDS011;75393;49.516;8.662;2024-03-02T00:36:26;3.30;;;1.13;;
85056;SDS011;75393;49.516;8.662;2024-03-02T00:38:52;1.48;;;0.88;;
85056;SDS011;75393;49.516;8.662;2024-03-02T00:41:21;1.25;;;1.15;;
85056;SDS011;75393;49.516;8.662;2024-03-02T00:44:00;2.08;;;0.88;;
85056;SDS011;75393;49.516;8.662;2024-03-02T00:46:33;1.63;;;1.02;;
85056;SDS011;75393;49.516;8.662;2024-03-02T00:49:00;1.55;;;0.80;;
85056;SDS011;75393;49.516;8.662;2024-03-02T00:51:29;1.70;;;0.82;;
85056;SDS011;75393;49.516;8.662;2024-03-02T00:53:57;1.90;;;1.00;;
85056;SDS011;75393;49.516;8.662;2024-03-02T00:56:24;2.15;;;0.85;;
85056;SDS011;75393;49.516;8.662;2024-03-02T00:58:50;2.10;;;1.02;;
85056;SDS011;75393;49.516;8.662;2024-03-02T01:01:16;1.55;;;0.82;;
85056;SDS011;75393;49.516;8.662;2024-03-02T01:03:41;2.42;;;1.33;;
85056;SDS011;75393;49.516;8.662;2024-03-02T01:06:07;2.25;;;0.90;;
85056;SDS011;75393;49.516;8.662;2024-03-02T01:08:33;3.15;;;1.00;;
85056;SDS011;75393;49.516;8.662;2024-03-02T01:11:02;1.75;;;0.88;;
85056;SDS011;75393;49.516;8.662;2024-03-02T01:13:27;1.40;;;0.90;;
85056;SDS011;75393;49.516;8.662;2024-03-02T01:15:54;1.98;;;1.05;;
85056;SDS011;75393;49.516;8.662;2024-03-02T01:18:19;1.70;;;0.80;;
85056;SDS011;75393;49.516;8.662;2024-03-02T01:20:45;2.90;;;1.17;;
85056;SDS011;75393;49.516;8.662;2024-03-02T01:23:10;1.60;;;1.30;;
85056;SDS011;75393;49.516;8.662;2024-03-02T01:25:36;1.45;;;0.93;;
85056;SDS011;75393;49.516;8.662;2024-03-02T01:28:01;1.60;;;1.20;;
85056;SDS011;75393;49.516;8.662;2024-03-02T01:30:26;1.77;;;0.90;;
85056;SDS011;75393;49.516;8.662;2024-03-02T01:32:52;2.05;;;1.10;;
85056;SDS011;75393;49.516;8.662;2024-03-02T01:35:17;1.63;;;1.17;;
85056;SDS011;75393;49.516;8.662;2024-03-02T01:37:42;2.90;;;1.00;;
85056;SDS011;75393;49.516;8.662;2024-03-02T01:40:08;2.57;;;1.13;;
85056;SDS011;75393;49.516;8.662;2024-03-02T01:42:37;2.05;;;1.10;;
85056;SDS011;75393;49.516;8.662;2024-03-02T01:45:04;2.72;;;1.17;;
85056;SDS011;75393;49.516;8.662;2024-03-02T01:47:33;1.33;;;1.02;;
85056;SDS011;75393;49.516;8.662;2024-03-02T01:49:58;1.35;;;0.80;;
85056;SDS011;75393;49.516;8.662;2024-03-02T01:52:24;6.00;;;1.05;;
85056;SDS011;75393;49.516;8.662;2024-03-02T01:54:50;1.95;;;0.85;;
85056;SDS011;75393;49.516;8.662;2024-03-02T01:57:15;3.17;;;1.20;;
85056;SDS011;75393;49.516;8.662;2024-03-02T01:59:40;2.33;;;0.80;;
85056;SDS011;75393;49.516;8.662;2024-03-02T02:02:06;2.05;;;1.02;;
85056;SDS011;75393;49.516;8.662;2024-03-02T02:04:32;2.63;;;1.35;;
85056;SDS011;75393;49.516;8.662;2024-03-02T02:06:57;1.83;;;1.05;;
85056;SDS011;75393;49.516;8.662;2024-03-02T02:09:23;1.58;;;0.77;;
85056;SDS011;75393;49.516;8.662;2024-03-02T02:11:50;1.42;;;1.17;;
85056;SDS011;75393;49.516;8.662;2024-03-02T02:14:16;2.95;;;1.10;;
85056;SDS011;75393;49.516;8.662;2024-03-02T02:16:41;1.15;;;0.80;;
85056;SDS011;75393;49.516;8.662;2024-03-02T02:19:06;1.50;;;0.80;;
85056;SDS011;75393;49.516;8.662;2024-03-02T02:21:32;1.83;;;0.63;;
85056;SDS011;75393;49.516;8.662;2024-03-02T02:23:57;2.25;;;0.93;;
85056;SDS011;75393;49.516;8.662;2024-03-02T02:26:22;1.47;;;0.93;;
85056;SDS011;75393;49.516;8.662;2024-03-02T02:28:47;1.02;;;0.80;;
85056;SDS011;75393;49.516;8.662;2024-03-02T02:31:13;1.17;;;0.90;;
85056;SDS011;75393;49.516;8.662;2024-03-02T02:33:39;1.35;;;1.25;;
85056;SDS011;75393;49.516;8.662;2024-03-02T02:36:05;1.35;;;0.90;;
85056;SDS011;75393;49.516;8.662;2024-03-02T02:38:32;0.90;;;0.65;;
85056;SDS011;75393;49.516;8.662;2024-03-02T02:40:58;2.88;;;0.90;;
85056;SDS011;75393;49.516;8.662;2024-03-02T02:43:23;2.47;;;1.27;;
85056;SDS011;75393;49.516;8.662;2024-03-02T02:45:49;2.72;;;0.70;;
85056;SDS011;75393;49.516;8.662;2024-03-02T02:48:14;2.13;;;0.82;;
85056;SDS011;75393;49.516;8.662;2024-03-02T02:50:39;1.67;;;0.70;;
85056;SDS011;75393;49.516;8.662;2024-03-02T02:53:06;1.73;;;0.90;;
85056;SDS011;75393;49.516;8.662;2024-03-02T02:55:34;2.83;;;0.90;;
85056;SDS011;75393;49.516;8.662;2024-03-02T02:57:59;3.17;;;2.28;;
85056;SDS011;75393;49.516;8.662;2024-03-02T03:00:25;1.70;;;0.90;;
85056;SDS011;75393;49.516;8.662;2024-03-02T03:02:50;2.20;;;0.90;;
85056;SDS011;75393;49.516;8.662;2024-03-02T03:05:16;1.65;;;1.15;;
85056;SDS011;75393;49.516;8.662;2024-03-02T03:07:41;1.30;;;0.90;;
85056;SDS011;75393;49.516;8.662;2024-03-02T03:10:07;1.20;;;0.75;;
85056;SDS011;75393;49.516;8.662;2024-03-02T03:12:33;0.98;;;0.80;;
85056;SDS011;75393;49.516;8.662;2024-03-02T03:14:59;1.48;;;0.90;;
85056;SDS011;75393;49.516;8.662;2024-03-02T03:17:25;1.35;;;0.93;;
85056;SDS011;75393;49.516;8.662;2024-03-02T03:19:50;2.60;;;1.15;;
85056;SDS011;75393;49.516;8.662;2024-03-02T03:22:16;3.10;;;0.70;;
85056;SDS011;75393;49.516;8.662;2024-03-02T03:24:41;3.10;;;1.33;;
85056;SDS011;75393;49.516;8.662;2024-03-02T03:27:06;0.77;;;0.73;;
85056;SDS011;75393;49.516;8.662;2024-03-02T03:29:32;1.65;;;0.73;;
85056;SDS011;75393;49.516;8.662;2024-03-02T03:31:57;1.92;;;0.93;;
85056;SDS011;75393;49.516;8.662;2024-03-02T03:34:22;1.80;;;0.85;;
85056;SDS011;75393;49.516;8.662;2024-03-02T03:36:48;1.63;;;0.97;;
85056;SDS011;75393;49.516;8.662;2024-03-02T03:39:13;1.47;;;0.80;;
85056;SDS011;75393;49.516;8.662;2024-03-02T03:41:40;1.55;;;0.77;;
85056;SDS011;75393;49.516;8.662;2024-03-02T03:44:05;2.08;;;0.85;;
85056;SDS011;75393;49.516;8.662;2024-03-02T03:46:30;1.83;;;1.00;;
85056;SDS011;75393;49.516;8.662;2024-03-02T03:48:56;1.38;;;0.70;;
85056;SDS011;75393;49.516;8.662;2024-03-02T03:51:21;1.83;;;0.60;;
85056;SDS011;75393;49.516;8.662;2024-03-02T03:53:47;1.10;;;0.98;;
85056;SDS011;75393;49.516;8.662;2024-03-02T03:56:13;1.20;;;0.90;;
85056;SDS011;75393;49.516;8.662;2024-03-02T03:58:38;1.47;;;1.13;;
85056;SDS011;75393;49.516;8.662;2024-03-02T04:01:04;1.60;;;0.87;;
85056;SDS011;75393;49.516;8.662;2024-03-02T04:03:29;1.30;;;1.03;;
85056;SDS011;75393;49.516;8.662;2024-03-02T04:05:55;1.60;;;0.90;;
85056;SDS011;75393;49.516;8.662;2024-03-02T04:08:20;3.97;;;1.00;;
85056;SDS011;75393;49.516;8.662;2024-03-02T04:10:46;1.25;;;0.90;;
85056;SDS011;75393;49.516;8.662;2024-03-02T04:13:11;1.73;;;0.90;;
85056;SDS011;75393;49.516;8.662;2024-03-02T04:15:37;1.42;;;1.00;;
85056;SDS011;75393;49.516;8.662;2024-03-02T04:18:02;1.27;;;0.90;;
85056;SDS011;75393;49.516;8.662;2024-03-02T04:20:28;1.40;;;1.30;;
85056;SDS011;75393;49.516;8.662;2024-03-02T04:22:53;0.95;;;0.85;;
85056;SDS011;75393;49.516;8.662;2024-03-02T04:25:18;1.42;;;0.82;;
85056;SDS011;75393;49.516;8.662;2024-03-02T04:27:44;1.08;;;0.98;;
85056;SDS011;75393;49.516;8.662;2024-03-02T04:30:10;0.93;;;0.60;;
85056;SDS011;75393;49.516;8.662;2024-03-02T04:32:36;1.23;;;0.70;;
85056;SDS011;75393;49.516;8.662;2024-03-02T04:35:01;2.58;;;0.80;;
85056;SDS011;75393;49.516;8.662;2024-03-02T04:37:26;1.23;;;0.70;;
85056;SDS011;75393;49.516;8.662;2024-03-02T04:39:52;2.20;;;1.02;;
85056;SDS011;75393;49.516;8.662;2024-03-02T04:42:17;0.95;;;0.80;;
85056;SDS011;75393;49.516;8.662;2024-03-02T04:44:42;0.90;;;0.90;;
85056;SDS011;75393;49.516;8.662;2024-03-02T04:47:08;1.30;;;0.85;;
85056;SDS011;75393;49.516;8.662;2024-03-02T04:49:33;1.23;;;0.60;;
85056;SDS011;75393;49.516;8.662;2024-03-02T04:51:58;1.13;;;0.60;;
85056;SDS011;75393;49.516;8.662;2024-03-02T04:54:24;1.05;;;0.80;;
85056;SDS011;75393;49.516;8.662;2024-03-02T04:56:49;1.45;;;0.80;;
85056;SDS011;75393;49.516;8.662;2024-03-02T04:59:15;2.13;;;0.95;;
85056;SDS011;75393;49.516;8.662;2024-03-02T05:01:43;2.70;;;0.93;;
85056;SDS011;75393;49.516;8.662;2024-03-02T05:04:09;1.38;;;0.88;;
85056;SDS011;75393;49.516;8.662;2024-03-02T05:06:38;1.00;;;0.90;;
85056;SDS011;75393;49.516;8.662;2024-03-02T05:09:05;1.30;;;0.68;;
85056;SDS011;75393;49.516;8.662;2024-03-02T05:11:30;1.40;;;0.90;;
85056;SDS011;75393;49.516;8.662;2024-03-02T05:14:01;2.08;;;0.68;;
85056;SDS011;75393;49.516;8.662;2024-03-02T05:16:27;2.97;;;1.00;;
85056;SDS011;75393;49.516;8.662;2024-03-02T05:18:52;0.80;;;0.70;;
85056;SDS011;75393;49.516;8.662;2024-03-02T05:21:17;1.63;;;0.70;;
85056;SDS011;75393;49.516;8.662;2024-03-02T05:23:43;1.52;;;0.88;;
85056;SDS011;75393;49.516;8.662;2024-03-02T05:26:09;1.50;;;0.80;;
85056;SDS011;75393;49.516;8.662;2024-03-02T05:28:37;1.88;;;0.77;;
85056;SDS011;75393;49.516;8.662;2024-03-02T05:31:03;1.13;;;0.93;;
85056;SDS011;75393;49.516;8.662;2024-03-02T05:33:28;4.60;;;1.10;;
85056;SDS011;75393;49.516;8.662;2024-03-02T05:35:55;1.70;;;1.00;;
85056;SDS011;75393;49.516;8.662;2024-03-02T05:38:20;1.45;;;0.68;;
85056;SDS011;75393;49.516;8.662;2024-03-02T05:40:46;2.30;;;0.82;;
85056;SDS011;75393;49.516;8.662;2024-03-02T05:43:12;2.05;;;0.88;;
85056;SDS011;75393;49.516;8.662;2024-03-02T05:45:37;1.30;;;0.80;;
85056;SDS011;75393;49.516;8.662;2024-03-02T05:48:02;1.55;;;0.75;;
85056;SDS011;75393;49.516;8.662;2024-03-02T05:50:28;1.55;;;0.82;;
85056;SDS011;75393;49.516;8.662;2024-03-02T05:52:53;2.37;;;1.10;;
85056;SDS011;75393;49.516;8.662;2024-03-02T05:55:18;1.83;;;1.10;;
85056;SDS011;75393;49.516;8.662;2024-03-02T05:57:44;1.00;;;0.70;;
85056;SDS011;75393;49.516;8.662;2024-03-02T06:00:09;2.63;;;1.10;;
85056;SDS011;75393;49.516;8.662;2024-03-02T06:02:38;2.35;;;0.90;;
85056;SDS011;75393;49.516;8.662;2024-03-02T06:05:04;1.50;;;0.90;;
85056;SDS011;75393;49.516;8.662;2024-03-02T06:07:32;1.90;;;0.60;;
85056;SDS011;75393;49.516;8.662;2024-03-02T06:09:57;1.08;;;0.80;;
85056;SDS011;75393;49.516;8.662;2024-03-02T06:12:23;2.22;;;0.98;;
85056;SDS011;75393;49.516;8.662;2024-03-02T06:14:48;1.55;;;0.90;;
85056;SDS011;75393;49.516;8.662;2024-03-02T06:17:14;2.97;;;0.90;;
85056;SDS011;75393;49.516;8.662;2024-03-02T06:19:39;2.67;;;0.82;;
85056;SDS011;75393;49.516;8.662;2024-03-02T06:22:04;1.27;;;0.65;;
85056;SDS011;75393;49.516;8.662;2024-03-02T06:24:30;1.15;;;0.50;;
85056;SDS011;75393;49.516;8.662;2024-03-02T06:26:55;1.77;;;0.73;;
85056;SDS011;75393;49.516;8.662;2024-03-02T06:29:21;2.20;;;0.70;;
85056;SDS011;75393;49.516;8.662;2024-03-02T06:31:46;0.80;;;0.75;;
85056;SDS011;75393;49.516;8.662;2024-03-02T06:34:12;0.90;;;0.90;;
85056;SDS011;75393;49.516;8.662;2024-03-02T06:36:38;1.83;;;1.00;;
85056;SDS011;75393;49.516;8.662;2024-03-02T06:39:03;1.10;;;1.00;;
85056;SDS011;75393;49.516;8.662;2024-03-02T06:41:29;0.80;;;0.65;;
85056;SDS011;75393;49.516;8.662;2024-03-02T06:43:54;1.60;;;0.88;;
85056;SDS011;75393;49.516;8.662;2024-03-02T06:46:24;0.70;;;0.70;;
85056;SDS011;75393;49.516;8.662;2024-03-02T06:48:50;1.65;;;0.80;;
85056;SDS011;75393;49.516;8.662;2024-03-02T06:51:15;0.98;;;0.70;;
85056;SDS011;75393;49.516;8.662;2024-03-02T06:53:41;1.67;;;1.02;;
85056;SDS011;75393;49.516;8.662;2024-03-02T06:56:06;2.00;;;0.88;;
85056;SDS011;75393;49.516;8.662;2024-03-02T06:58:32;2.35;;;0.85;;
85056;SDS011;75393;49.516;8.662;2024-03-02T07:00:57;1.63;;;1.10;;
85056;SDS011;75393;49.516;8.662;2024-03-02T07:03:23;1.58;;;0.95;;
85056;SDS011;75393;49.516;8.662;2024-03-02T07:05:48;1.33;;;0.80;;
85056;SDS011;75393;49.516;8.662;2024-03-02T07:08:13;0.98;;;0.88;;
85056;SDS011;75393;49.516;8.662;2024-03-02T07:10:39;0.57;;;0.57;;
85056;SDS011;75393;49.516;8.662;2024-03-02T07:13:04;1.10;;;0.83;;
85056;SDS011;75393;49.516;8.662;2024-03-02T07:15:30;1.65;;;0.90;;
85056;SDS011;75393;49.516;8.662;2024-03-02T07:18:10;1.00;;;0.85;;
85056;SDS011;75393;49.516;8.662;2024-03-02T07:20:35;1.40;;;0.85;;
85056;SDS011;75393;49.516;8.662;2024-03-02T07:23:00;1.92;;;0.68;;
85056;SDS011;75393;49.516;8.662;2024-03-02T07:25:26;0.93;;;0.68;;
85056;SDS011;75393;49.516;8.662;2024-03-02T07:27:51;0.80;;;0.70;;
85056;SDS011;75393;49.516;8.662;2024-03-02T07:30:17;1.40;;;0.60;;
85056;SDS011;75393;49.516;8.662;2024-03-02T07:32:43;0.90;;;0.77;;
85056;SDS011;75393;49.516;8.662;2024-03-02T07:35:14;1.10;;;1.00;;
85056;SDS011;75393;49.516;8.662;2024-03-02T07:37:40;1.13;;;0.70;;
85056;SDS011;75393;49.516;8.662;2024-03-02T07:40:06;1.00;;;0.90;;
85056;SDS011;75393;49.516;8.662;2024-03-02T07:42:34;1.10;;;0.85;;
85056;SDS011;75393;49.516;8.662;2024-03-02T07:45:00;1.33;;;0.80;;
85056;SDS011;75393;49.516;8.662;2024-03-02T07:47:25;1.27;;;0.93;;
85056;SDS011;75393;49.516;8.662;2024-03-02T07:49:50;0.82;;;0.75;;
85056;SDS011;75393;49.516;8.662;2024-03-02T07:52:16;0.80;;;0.80;;
85056;SDS011;75393;49.516;8.662;2024-03-02T07:54:41;1.40;;;0.90;;
85056;SDS011;75393;49.516;8.662;2024-03-02T07:57:06;0.60;;;0.60;;
85056;SDS011;75393;49.516;8.662;2024-03-02T07:59:31;0.70;;;0.70;;
85056;SDS011;75393;49.516;8.662;2024-03-02T08:01:57;1.63;;;1.00;;
85056;SDS011;75393;49.516;8.662;2024-03-02T08:04:23;1.20;;;0.68;;
85056;SDS011;75393;49.516;8.662;2024-03-02T08:06:48;0.82;;;0.82;;
85056;SDS011;75393;49.516;8.662;2024-03-02T08:09:13;1.08;;;0.90;;
85056;SDS011;75393;49.516;8.662;2024-03-02T08:11:39;1.15;;;1.05;;
85056;SDS011;75393;49.516;8.662;2024-03-02T08:14:04;1.20;;;1.00;;
85056;SDS011;75393;49.516;8.662;2024-03-02T08:16:29;4.75;;;0.90;;
85056;SDS011;75393;49.516;8.662;2024-03-02T08:18:55;1.55;;;0.90;;
85056;SDS011;75393;49.516;8.662;2024-03-02T08:21:23;1.88;;;1.05;;
85056;SDS011;75393;49.516;8.662;2024-03-02T08:23:48;3.00;;;1.13;;
85056;SDS011;75393;49.516;8.662;2024-03-02T08:26:13;3.00;;;1.23;;
85056;SDS011;75393;49.516;8.662;2024-03-02T08:28:39;4.05;;;1.80;;
85056;SDS011;75393;49.516;8.662;2024-03-02T08:31:06;3.45;;;1.73;;
85056;SDS011;75393;49.516;8.662;2024-03-02T08:33:32;2.42;;;1.70;;
85056;SDS011;75393;49.516;8.662;2024-03-02T08:35:57;3.92;;;2.05;;
85056;SDS011;75393;49.516;8.662;2024-03-02T08:38:22;6.40;;;1.98;;
85056;SDS011;75393;49.516;8.662;2024-03-02T08:40:54;5.03;;;1.98;;
85056;SDS011;75393;49.516;8.662;2024-03-02T08:43:20;5.53;;;1.80;;
85056;SDS011;75393;49.516;8.662;2024-03-02T08:45:45;3.53;;;2.05;;
85056;SDS011;75393;49.516;8.662;2024-03-02T08:48:12;6.10;;;1.80;;
85056;SDS011;75393;49.516;8.662;2024-03-02T08:50:37;4.70;;;1.85;;
85056;SDS011;75393;49.516;8.662;2024-03-02T08:53:03;2.88;;;2.10;;
85056;SDS011;75393;49.516;8.662;2024-03-02T08:55:29;2.95;;;1.65;;
85056;SDS011;75393;49.516;8.662;2024-03-02T08:57:54;4.13;;;1.88;;
85056;SDS011;75393;49.516;8.662;2024-03-02T09:00:20;3.65;;;2.10;;
85056;SDS011;75393;49.516;8.662;2024-03-02T09:02:46;5.28;;;2.20;;
85056;SDS011;75393;49.516;8.662;2024-03-02T09:05:11;4.80;;;1.75;;
85056;SDS011;75393;49.516;8.662;2024-03-02T09:07:37;3.50;;;2.40;;
85056;SDS011;75393;49.516;8.662;2024-03-02T09:10:03;4.90;;;1.70;;
85056;SDS011;75393;49.516;8.662;2024-03-02T09:12:30;4.60;;;1.65;;
85056;SDS011;75393;49.516;8.662;2024-03-02T09:14:55;4.75;;;1.88;;
85056;SDS011;75393;49.516;8.662;2024-03-02T09:17:20;3.83;;;1.70;;
85056;SDS011;75393;49.516;8.662;2024-03-02T09:19:46;4.93;;;2.05;;
85056;SDS011;75393;49.516;8.662;2024-03-02T09:22:12;4.15;;;1.90;;
85056;SDS011;75393;49.516;8.662;2024-03-02T09:24:38;5.75;;;2.03;;
85056;SDS011;75393;49.516;8.662;2024-03-02T09:27:03;3.70;;;2.03;;
85056;SDS011;75393;49.516;8.662;2024-03-02T09:29:29;4.45;;;1.60;;
85056;SDS011;75393;49.516;8.662;2024-03-02T09:31:55;7.07;;;2.03;;
85056;SDS011;75393;49.516;8.662;2024-03-02T09:34:20;3.70;;;2.08;;
85056;SDS011;75393;49.516;8.662;2024-03-02T09:36:46;4.60;;;1.95;;
85056;SDS011;75393;49.516;8.662;2024-03-02T09:39:11;2.40;;;2.00;;
85056;SDS011;75393;49.516;8.662;2024-03-02T09:41:36;4.07;;;2.00;;
85056;SDS011;75393;49.516;8.662;2024-03-02T09:44:03;4.22;;;1.98;;
85056;SDS011;75393;49.516;8.662;2024-03-02T09:46:29;3.53;;;1.77;;
85056;SDS011;75393;49.516;8.662;2024-03-02T09:48:55;5.07;;;1.73;;
85056;SDS011;75393;49.516;8.662;2024-03-02T09:51:20;10.93;;;2.40;;
85056;SDS011;75393;49.516;8.662;2024-03-02T09:53:45;8.13;;;2.50;;
85056;SDS011;75393;49.516;8.662;2024-03-02T09:56:12;7.55;;;2.78;;
85056;SDS011;75393;49.516;8.662;2024-03-02T09:58:38;8.13;;;2.13;;
85056;SDS011;75393;49.516;8.662;2024-03-02T10:01:05;10.43;;;2.75;;
85056;SDS011;75393;49.516;8.662;2024-03-02T10:03:34;6.80;;;2.47;;
85056;SDS011;75393;49.516;8.662;2024-03-02T10:08:50;10.43;;;3.30;;
85056;SDS011;75393;49.516;8.662;2024-03-02T10:11:28;6.82;;;3.20;;
85056;SDS011;75393;49.516;8.662;2024-03-02T10:14:09;7.55;;;3.15;;
85056;SDS011;75393;49.516;8.662;2024-03-02T10:16:35;6.80;;;2.60;;
85056;SDS011;75393;49.516;8.662;2024-03-02T10:19:20;4.05;;;2.53;;
85056;SDS011;75393;49.516;8.662;2024-03-02T10:21:47;4.45;;;2.53;;
85056;SDS011;75393;49.516;8.662;2024-03-02T10:24:14;6.55;;;2.30;;
85056;SDS011;75393;49.516;8.662;2024-03-02T10:26:39;5.15;;;2.60;;
85056;SDS011;75393;49.516;8.662;2024-03-02T10:29:06;3.67;;;2.38;;
85056;SDS011;75393;49.516;8.662;2024-03-02T10:31:33;4.20;;;2.10;;
85056;SDS011;75393;49.516;8.662;2024-03-02T10:33:58;3.63;;;2.15;;
85056;SDS011;75393;49.516;8.662;2024-03-02T10:36:25;3.55;;;2.22;;
85056;SDS011;75393;49.516;8.662;2024-03-02T10:38:51;3.80;;;2.40;;
85056;SDS011;75393;49.516;8.662;2024-03-02T10:41:20;3.00;;;2.20;;
85056;SDS011;75393;49.516;8.662;2024-03-02T10:43:48;3.33;;;2.08;;
85056;SDS011;75393;49.516;8.662;2024-03-02T10:46:16;3.20;;;2.10;;
85056;SDS011;75393;49.516;8.662;2024-03-02T10:48:44;3.25;;;2.25;;
85056;SDS011;75393;49.516;8.662;2024-03-02T10:51:11;2.85;;;2.17;;
85056;SDS011;75393;49.516;8.662;2024-03-02T10:53:37;3.90;;;2.75;;
85056;SDS011;75393;49.516;8.662;2024-03-02T10:56:02;2.97;;;2.20;;
85056;SDS011;75393;49.516;8.662;2024-03-02T10:58:31;4.55;;;2.50;;
85056;SDS011;75393;49.516;8.662;2024-03-02T11:00:58;2.95;;;2.33;;
85056;SDS011;75393;49.516;8.662;2024-03-02T11:03:36;2.88;;;1.67;;
85056;SDS011;75393;49.516;8.662;2024-03-02T11:06:05;2.67;;;1.92;;
85056;SDS011;75393;49.516;8.662;2024-03-02T11:08:33;2.53;;;1.80;;
85056;SDS011;75393;49.516;8.662;2024-03-02T11:11:02;1.98;;;1.63;;
85056;SDS011;75393;49.516;8.662;2024-03-02T11:13:32;3.72;;;1.90;;
85056;SDS011;75393;49.516;8.662;2024-03-02T11:16:05;2.33;;;1.50;;
85056;SDS011;75393;49.516;8.662;2024-03-02T11:18:31;2.80;;;1.75;;
85056;SDS011;75393;49.516;8.662;2024-03-02T11:20:57;2.22;;;1.58;;
85056;SDS011;75393;49.516;8.662;2024-03-02T11:23:33;2.40;;;1.58;;
85056;SDS011;75393;49.516;8.662;2024-03-02T11:26:21;1.58;;;1.48;;
85056;SDS011;75393;49.516;8.662;2024-03-02T11:28:49;1.60;;;1.13;;
85056;SDS011;75393;49.516;8.662;2024-03-02T11:31:14;4.82;;;1.50;;
85056;SDS011;75393;49.516;8.662;2024-03-02T11:33:39;3.97;;;1.40;;
85056;SDS011;75393;49.516;8.662;2024-03-02T11:36:08;2.53;;;1.55;;
85056;SDS011;75393;49.516;8.662;2024-03-02T11:38:34;2.33;;;1.50;;
85056;SDS011;75393;49.516;8.662;2024-03-02T11:41:03;2.03;;;1.20;;
85056;SDS011;75393;49.516;8.662;2024-03-02T11:43:32;1.10;;;1.00;;
85056;SDS011;75393;49.516;8.662;2024-03-02T11:46:01;1.60;;;1.20;;
85056;SDS011;75393;49.516;8.662;2024-03-02T11:48:29;2.17;;;1.13;;
85056;SDS011;75393;49.516;8.662;2024-03-02T11:50:57;1.52;;;1.23;;
85056;SDS011;75393;49.516;8.662;2024-03-02T11:53:23;3.50;;;1.10;;
85056;SDS011;75393;49.516;8.662;2024-03-02T11:55:48;2.83;;;1.10;;
85056;SDS011;75393;49.516;8.662;2024-03-02T11:58:17;2.83;;;1.05;;
85056;SDS011;75393;49.516;8.662;2024-03-02T12:00:43;3.55;;;1.20;;
85056;SDS011;75393;49.516;8.662;2024-03-02T12:03:09;2.97;;;1.00;;
85056;SDS011;75393;49.516;8.662;2024-03-02T12:05:35;2.90;;;0.80;;
85056;SDS011;75393;49.516;8.662;2024-03-02T12:08:02;1.60;;;0.82;;
85056;SDS011;75393;49.516;8.662;2024-03-02T12:10:29;3.03;;;1.38;;
85056;SDS011;75393;49.516;8.662;2024-03-02T12:12:55;2.20;;;0.98;;
85056;SDS011;75393;49.516;8.662;2024-03-02T12:15:24;1.80;;;1.27;;
85056;SDS011;75393;49.516;8.662;2024-03-02T12:17:52;2.10;;;1.15;;
85056;SDS011;75393;49.516;8.662;2024-03-02T12:20:19;1.00;;;0.90;;
85056;SDS011;75393;49.516;8.662;2024-03-02T12:22:44;2.60;;;1.30;;
85056;SDS011;75393;49.516;8.662;2024-03-02T12:25:11;2.38;;;1.00;;
85056;SDS011;75393;49.516;8.662;2024-03-02T12:27:36;1.88;;;1.30;;
85056;SDS011;75393;49.516;8.662;2024-03-02T12:30:02;1.77;;;1.08;;
85056;SDS011;75393;49.516;8.662;2024-03-02T12:32:29;3.92;;;1.30;;
85056;SDS011;75393;49.516;8.662;2024-03-02T12:34:55;2.67;;;1.02;;
85056;SDS011;75393;49.516;8.662;2024-03-02T12:37:20;1.88;;;1.20;;
85056;SDS011;75393;49.516;8.662;2024-03-02T12:39:45;2.50;;;1.20;;
85056;SDS011;75393;49.516;8.662;2024-03-02T12:42:11;1.85;;;1.20;;
85056;SDS011;75393;49.516;8.662;2024-03-02T12:44:37;2.25;;;1.30;;
85056;SDS011;75393;49.516;8.662;2024-03-02T12:47:05;1.60;;;1.17;;
85056;SDS011;75393;49.516;8.662;2024-03-02T12:49:30;2.03;;;1.05;;
85056;SDS011;75393;49.516;8.662;2024-03-02T12:51:57;3.33;;;1.55;;
85056;SDS011;75393;49.516;8.662;2024-03-02T12:54:22;4.13;;;1.33;;
85056;SDS011;75393;49.516;8.662;2024-03-02T12:56:49;5.15;;;1.48;;
85056;SDS011;75393;49.516;8.662;2024-03-02T12:59:18;4.22;;;1.75;;
85056;SDS011;75393;49.516;8.662;2024-03-02T13:01:50;3.92;;;1.60;;
85056;SDS011;75393;49.516;8.662;2024-03-02T13:04:24;5.25;;;1.80;;
85056;SDS011;75393;49.516;8.662;2024-03-02T13:06:51;3.97;;;1.40;;
85056;SDS011;75393;49.516;8.662;2024-03-02T13:09:17;3.08;;;1.50;;
85056;SDS011;75393;49.516;8.662;2024-03-02T13:11:43;2.28;;;1.23;;
85056;SDS011;75393;49.516;8.662;2024-03-02T13:14:10;4.28;;;1.23;;
85056;SDS011;75393;49.516;8.662;2024-03-02T13:16:39;2.63;;;1.30;;
85056;SDS011;75393;49.516;8.662;2024-03-02T13:19:16;2.85;;;1.50;;
85056;SDS011;75393;49.516;8.662;2024-03-02T13:21:44;2.22;;;1.23;;
85056;SDS011;75393;49.516;8.662;2024-03-02T13:24:09;1.90;;;1.33;;
85056;SDS011;75393;49.516;8.662;2024-03-02T13:26:34;3.97;;;1.40;;
85056;SDS011;75393;49.516;8.662;2024-03-02T13:29:00;6.10;;;1.73;;
85056;SDS011;75393;49.516;8.662;2024-03-02T13:31:25;2.50;;;1.40;;
85056;SDS011;75393;49.516;8.662;2024-03-02T13:33:51;2.40;;;1.48;;
85056;SDS011;75393;49.516;8.662;2024-03-02T13:36:16;2.65;;;1.30;;
85056;SDS011;75393;49.516;8.662;2024-03-02T13:38:42;2.08;;;1.23;;
85056;SDS011;75393;49.516;8.662;2024-03-02T13:41:07;2.80;;;1.40;;
85056;SDS011;75393;49.516;8.662;2024-03-02T13:43:32;4.30;;;1.30;;
85056;SDS011;75393;49.516;8.662;2024-03-02T13:45:59;1.75;;;1.00;;
85056;SDS011;75393;49.516;8.662;2024-03-02T13:48:25;2.08;;;1.15;;
85056;SDS011;75393;49.516;8.662;2024-03-02T13:50:53;3.08;;;1.30;;
85056;SDS011;75393;49.516;8.662;2024-03-02T13:53:19;3.40;;;1.40;;
85056;SDS011;75393;49.516;8.662;2024-03-02T13:55:44;1.67;;;1.10;;
85056;SDS011;75393;49.516;8.662;2024-03-02T13:58:10;2.15;;;1.30;;
85056;SDS011;75393;49.516;8.662;2024-03-02T14:00:36;4.47;;;1.23;;
85056;SDS011;75393;49.516;8.662;2024-03-02T14:03:02;6.75;;;1.90;;
85056;SDS011;75393;49.516;8.662;2024-03-02T14:05:28;5.40;;;1.50;;
85056;SDS011;75393;49.516;8.662;2024-03-02T14:07:54;7.75;;;2.20;;
85056;SDS011;75393;49.516;8.662;2024-03-02T14:10:19;4.95;;;1.67;;
85056;SDS011;75393;49.516;8.662;2024-03-02T14:12:47;7.00;;;1.98;;
85056;SDS011;75393;49.516;8.662;2024-03-02T14:15:13;6.03;;;1.48;;
85056;SDS011;75393;49.516;8.662;2024-03-02T14:17:38;6.95;;;1.85;;
85056;SDS011;75393;49.516;8.662;2024-03-02T14:20:04;3.50;;;1.80;;
85056;SDS011;75393;49.516;8.662;2024-03-02T14:22:30;6.38;;;2.17;;
85056;SDS011;75393;49.516;8.662;2024-03-02T14:24:56;3.60;;;1.73;;
85056;SDS011;75393;49.516;8.662;2024-03-02T14:27:22;3.50;;;1.45;;
85056;SDS011;75393;49.516;8.662;2024-03-02T14:29:47;4.85;;;1.63;;
85056;SDS011;75393;49.516;8.662;2024-03-02T14:32:12;3.55;;;1.73;;
85056;SDS011;75393;49.516;8.662;2024-03-02T14:34:38;5.10;;;1.83;;
85056;SDS011;75393;49.516;8.662;2024-03-02T14:37:03;5.53;;;1.80;;
85056;SDS011;75393;49.516;8.662;2024-03-02T14:39:29;6.57;;;1.70;;
85056;SDS011;75393;49.516;8.662;2024-03-02T14:41:55;3.42;;;1.65;;
85056;SDS011;75393;49.516;8.662;2024-03-02T14:44:20;4.38;;;1.88;;
85056;SDS011;75393;49.516;8.662;2024-03-02T14:46:46;4.03;;;1.90;;